createdAt,value
2023-04-16T00:00:03.848Z,106.25
2023-04-16T00:02:31.567Z,74.53
2023-04-16T00:04:59.294Z,78.13
2023-04-16T00:07:26.861Z,137.68
2023-04-16T00:09:54.328Z,100.13
2023-04-16T00:12:21.823Z,124.05
2023-04-16T00:14:49.406Z,104.78
2023-04-16T00:17:18.273Z,90.60
2023-04-16T00:19:45.893Z,78.78
2023-04-16T00:22:13.343Z,80.25
2023-04-16T00:24:41.513Z,125.63
2023-04-16T00:27:08.992Z,94.40
2023-04-16T00:29:36.476Z,94.43
2023-04-16T00:32:04.124Z,157.48
2023-04-16T00:34:32.907Z,113.13
2023-04-16T00:37:00.521Z,91.75
2023-04-16T00:39:28.051Z,98.93
2023-04-16T00:41:55.520Z,114.82
2023-04-16T00:44:22.958Z,83.05
2023-04-16T00:46:50.593Z,123.32
2023-04-16T00:49:18.408Z,102.68
2023-04-16T00:51:47.440Z,136.35
2023-04-16T00:54:14.919Z,103.53
2023-04-16T00:56:42.485Z,93.88
2023-04-16T00:59:10.329Z,102.68
2023-04-16T01:01:38.209Z,130.73
2023-04-16T01:04:07.154Z,107.30
2023-04-16T01:06:34.863Z,113.53
2023-04-16T01:09:03.956Z,98.78
2023-04-16T01:11:31.447Z,112.20
2023-04-16T01:13:58.958Z,137.35
2023-04-16T01:16:26.837Z,92.35
2023-04-16T01:18:54.453Z,94.40
2023-04-16T01:21:23.500Z,122.43
2023-04-16T01:23:51.019Z,99.25
2023-04-16T01:26:18.467Z,120.53
2023-04-16T01:28:46.537Z,122.03
2023-04-16T01:31:14.097Z,90.55
2023-04-16T01:33:41.600Z,107.00
2023-04-16T01:36:09.143Z,110.00
2023-04-16T01:38:38.098Z,101.32
2023-04-16T01:41:05.804Z,91.22
2023-04-16T01:43:33.271Z,120.03
2023-04-16T01:46:12.391Z,91.32
2023-04-16T01:48:39.901Z,140.88
2023-04-16T01:51:07.368Z,97.15
2023-04-16T01:53:36.978Z,91.35
2023-04-16T01:56:07.480Z,151.82
2023-04-16T01:58:34.950Z,135.30
2023-04-16T02:01:02.681Z,154.95
2023-04-16T02:03:30.445Z,117.00
2023-04-16T02:05:58.200Z,167.23
2023-04-16T02:08:25.888Z,130.23
2023-04-16T02:10:53.449Z,87.55
2023-04-16T02:13:23.288Z,142.50
2023-04-16T02:15:51.656Z,139.10
2023-04-16T02:18:19.282Z,159.00
2023-04-16T02:20:48.051Z,101.05
2023-04-16T02:23:15.710Z,106.63
2023-04-16T02:25:43.999Z,116.97
2023-04-16T02:28:12.810Z,166.73
2023-04-16T02:30:42.135Z,127.28
2023-04-16T02:33:11.404Z,105.07
2023-04-16T02:35:39.515Z,161.05
2023-04-16T02:38:07.530Z,103.45
2023-04-16T02:40:35.086Z,114.70
2023-04-16T02:43:02.565Z,169.43
2023-04-16T02:45:31.612Z,215.95
2023-04-16T02:48:01.239Z,154.70
2023-04-16T02:50:28.704Z,143.50
2023-04-16T02:52:56.252Z,159.15
2023-04-16T02:55:23.723Z,151.52
2023-04-16T02:57:52.840Z,126.68
2023-04-16T03:00:20.666Z,113.70
2023-04-16T03:02:48.213Z,139.27
2023-04-16T03:05:17.162Z,177.68
2023-04-16T03:07:44.768Z,118.30
2023-04-16T03:10:13.850Z,151.57
2023-04-16T03:12:41.281Z,167.90
2023-04-16T03:15:09.524Z,161.38
2023-04-16T03:17:36.966Z,114.10
2023-04-16T03:20:05.433Z,131.90
2023-04-16T03:22:34.171Z,179.93
2023-04-16T03:25:01.592Z,148.63
2023-04-16T03:27:29.210Z,176.73
2023-04-16T03:29:57.133Z,112.95
2023-04-16T03:32:24.637Z,121.90
2023-04-16T03:34:52.127Z,175.32
2023-04-16T03:37:19.628Z,156.30
2023-04-16T03:39:48.448Z,153.10
2023-04-16T03:42:15.947Z,194.93
2023-04-16T03:44:43.575Z,252.55
2023-04-16T03:47:11.455Z,180.52
2023-04-16T03:49:38.946Z,226.18
2023-04-16T03:52:06.788Z,157.88
2023-04-16T03:54:34.325Z,147.05
2023-04-16T03:57:03.100Z,131.73
2023-04-16T03:59:30.640Z,190.95
2023-04-16T04:01:58.290Z,144.00
2023-04-16T04:04:25.991Z,228.20
2023-04-16T04:06:53.504Z,167.77
2023-04-16T04:09:21.174Z,224.38
2023-04-16T04:11:48.657Z,256.90
2023-04-16T04:14:17.447Z,241.98
2023-04-16T04:16:45.124Z,225.80
2023-04-16T04:19:12.752Z,209.93
2023-04-16T04:21:40.365Z,265.83
2023-04-16T04:24:07.860Z,181.43
2023-04-16T04:26:35.411Z,192.70
2023-04-16T04:29:02.917Z,188.18
2023-04-16T04:31:31.895Z,255.95
2023-04-16T04:33:59.361Z,198.30
2023-04-16T04:36:27.526Z,236.10
2023-04-16T04:38:54.967Z,212.23
2023-04-16T04:41:22.458Z,158.05
2023-04-16T04:43:49.933Z,207.18
2023-04-16T04:46:17.529Z,167.98
2023-04-16T04:48:46.352Z,162.23
2023-04-16T04:51:13.917Z,143.20
2023-04-16T04:53:41.395Z,147.23
2023-04-16T04:56:12.893Z,204.55
2023-04-16T05:01:08.428Z,160.85
2023-04-16T05:03:36.113Z,211.93
2023-04-16T05:06:05.682Z,174.57
2023-04-16T05:08:33.188Z,188.52
2023-04-16T05:11:00.910Z,181.50
2023-04-16T05:13:28.425Z,180.95
2023-04-16T05:15:56.030Z,251.07
2023-04-16T05:18:23.626Z,199.35
2023-04-16T05:20:51.226Z,203.23
2023-04-16T05:23:19.984Z,198.82
2023-04-16T05:25:47.497Z,286.25
2023-04-16T05:28:15.382Z,248.00
2023-04-16T05:30:42.903Z,201.25
2023-04-16T05:33:10.504Z,256.85
2023-04-16T05:35:38.005Z,235.65
2023-04-16T05:38:05.478Z,249.75
2023-04-16T05:40:34.282Z,219.43
2023-04-16T05:43:01.817Z,184.05
2023-04-16T05:45:29.398Z,172.50
2023-04-16T05:47:56.876Z,183.93
2023-04-16T05:50:24.408Z,133.25
2023-04-16T05:52:51.952Z,199.75
2023-04-16T05:55:19.456Z,256.75
2023-04-16T05:57:48.228Z,136.93
2023-04-16T06:00:16.130Z,212.88
2023-04-16T06:02:43.807Z,225.38
2023-04-16T06:05:11.379Z,251.70
2023-04-16T06:07:38.947Z,167.45
2023-04-16T06:10:07.532Z,153.48
2023-04-16T06:12:35.098Z,238.55
2023-04-16T06:15:04.309Z,263.55
2023-04-16T06:17:31.803Z,153.02
2023-04-16T06:19:59.285Z,170.32
2023-04-16T06:22:26.763Z,131.13
2023-04-16T06:24:54.615Z,161.68
2023-04-16T06:27:22.104Z,120.28
2023-04-16T06:29:49.601Z,135.80
2023-04-16T06:32:18.536Z,104.65
2023-04-16T06:34:46.088Z,119.72
2023-04-16T06:37:13.630Z,126.75
2023-04-16T06:39:41.186Z,113.10
2023-04-16T06:42:08.770Z,189.50
2023-04-16T06:44:36.524Z,150.82
2023-04-16T06:47:04.151Z,130.20
2023-04-16T06:49:33.086Z,112.43
2023-04-16T06:52:00.572Z,90.35
2023-04-16T06:54:28.052Z,101.60
2023-04-16T06:56:55.504Z,93.18
2023-04-16T06:59:23.057Z,104.43
2023-04-16T07:01:51.268Z,84.53
2023-04-16T07:04:18.815Z,106.97
2023-04-16T07:06:47.737Z,102.40
2023-04-16T07:09:15.512Z,112.53
2023-04-16T07:11:51.986Z,81.30
2023-04-16T07:14:19.439Z,88.10
2023-04-16T07:16:46.988Z,112.75
2023-04-16T07:19:14.498Z,117.10
2023-04-16T07:21:43.753Z,88.63
2023-04-16T07:24:12.649Z,80.20
2023-04-16T07:26:40.511Z,109.82
2023-04-16T07:29:08.175Z,98.95
2023-04-16T07:31:36.096Z,79.72
2023-04-16T07:34:03.688Z,90.63
2023-04-16T07:36:31.903Z,76.43
2023-04-16T07:38:59.446Z,77.03
2023-04-16T07:41:29.499Z,90.90
2023-04-16T07:43:56.992Z,113.63
2023-04-16T07:46:24.974Z,102.22
2023-04-16T07:48:54.020Z,105.40
2023-04-16T07:51:21.461Z,76.20
2023-04-16T07:53:48.882Z,96.15
2023-04-16T07:56:16.422Z,98.43
2023-04-16T07:58:45.198Z,99.20
2023-04-16T08:01:12.708Z,83.22
2023-04-16T08:03:40.491Z,90.68
2023-04-16T08:06:08.122Z,95.47
2023-04-16T08:08:35.638Z,93.28
2023-04-16T08:11:03.133Z,107.22
2023-04-16T08:13:31.806Z,105.90
2023-04-16T08:16:02.433Z,84.97
2023-04-16T08:18:29.895Z,91.28
2023-04-16T08:20:57.870Z,82.97
2023-04-16T08:23:25.403Z,110.60
2023-04-16T08:25:53.163Z,106.50
2023-04-16T08:28:20.679Z,92.60
2023-04-16T08:30:48.151Z,89.82
2023-04-16T08:33:17.057Z,86.88
2023-04-16T08:35:44.763Z,78.97
2023-04-16T08:38:12.339Z,77.25
2023-04-16T08:40:41.607Z,76.80
2023-04-16T08:43:11.642Z,76.80
2023-04-16T08:45:39.602Z,70.88
2023-04-16T08:48:07.740Z,74.03
2023-04-16T08:50:36.753Z,106.60
2023-04-16T08:53:06.629Z,93.05
2023-04-16T08:55:38.948Z,86.07
2023-04-16T08:58:12.256Z,78.85
2023-04-16T09:00:41.036Z,63.05
2023-04-16T09:03:09.056Z,79.55
2023-04-16T09:05:38.601Z,62.25
2023-04-16T09:08:06.663Z,66.28
2023-04-16T09:10:35.055Z,76.70
2023-04-16T09:13:02.730Z,69.22
2023-04-16T09:15:30.437Z,65.15
2023-04-16T09:17:58.523Z,66.05
2023-04-16T09:20:26.264Z,67.80
2023-04-16T09:22:57.100Z,77.07
2023-04-16T09:25:25.994Z,56.08
2023-04-16T09:27:53.634Z,57.88
2023-04-16T09:30:23.208Z,64.80
2023-04-16T09:32:51.208Z,64.03
2023-04-16T09:35:19.872Z,46.42
2023-04-16T09:37:57.875Z,58.53
2023-04-16T09:40:26.775Z,73.55
2023-04-16T09:42:58.162Z,76.18
2023-04-16T09:45:25.708Z,50.25
2023-04-16T09:47:53.213Z,56.90
2023-04-16T09:50:21.311Z,63.75
2023-04-16T09:52:50.125Z,70.30
2023-04-16T09:55:23.710Z,66.00
2023-04-16T09:57:59.989Z,67.45
2023-04-16T10:00:27.640Z,59.53
2023-04-16T10:03:04.605Z,56.88
2023-04-16T10:05:32.286Z,64.50
2023-04-16T10:08:01.628Z,53.67
2023-04-16T10:10:30.685Z,52.22
2023-04-16T10:12:58.511Z,52.35
2023-04-16T10:15:26.296Z,44.53
2023-04-16T10:17:55.192Z,42.85
2023-04-16T10:20:23.898Z,40.58
2023-04-16T10:22:51.397Z,49.30
2023-04-16T10:25:19.119Z,47.47
2023-04-16T10:27:48.503Z,40.72
2023-04-16T10:30:16.755Z,47.58
2023-04-16T10:32:44.971Z,48.50
2023-04-16T10:35:16.753Z,51.45
2023-04-16T10:37:45.299Z,48.78
2023-04-16T10:40:26.002Z,48.92
2023-04-16T10:42:59.118Z,56.28
2023-04-16T10:45:33.468Z,56.28
2023-04-16T10:48:05.884Z,45.50
2023-04-16T10:50:36.077Z,49.47
2023-04-16T10:53:20.130Z,53.00
2023-04-16T10:56:15.564Z,48.92
2023-04-16T10:58:44.358Z,47.50
2023-04-16T11:01:14.403Z,52.85
2023-04-16T11:03:43.830Z,45.67
2023-04-16T11:06:13.016Z,53.00
2023-04-16T11:08:53.414Z,53.22
2023-04-16T11:11:22.308Z,50.80
2023-04-16T11:13:51.120Z,52.97
2023-04-16T11:16:18.773Z,51.70
2023-04-16T11:18:51.199Z,50.83
2023-04-16T11:21:19.454Z,51.30
2023-04-16T11:23:48.819Z,50.55
2023-04-16T11:26:27.135Z,65.25
2023-04-16T11:28:57.206Z,53.35
2023-04-16T11:31:24.913Z,62.42
2023-04-16T11:33:52.621Z,54.85
2023-04-16T11:36:20.125Z,57.13
2023-04-16T11:38:48.139Z,65.47
2023-04-16T11:41:21.926Z,62.17
2023-04-16T11:43:49.412Z,71.78
2023-04-16T11:46:27.427Z,58.05
2023-04-16T11:48:56.423Z,55.35
2023-04-16T11:51:24.189Z,59.00
2023-04-16T11:53:53.038Z,63.58
2023-04-16T11:56:28.544Z,57.03
2023-04-16T11:59:13.250Z,61.53
2023-04-16T12:01:45.554Z,51.90
2023-04-16T12:04:14.882Z,53.85
2023-04-16T12:06:42.428Z,50.97
2023-04-16T12:09:27.774Z,49.25
2023-04-16T12:11:55.222Z,52.63
2023-04-16T12:14:24.038Z,44.53
2023-04-16T12:16:53.032Z,39.78
2023-04-16T12:19:21.752Z,40.20
2023-04-16T12:21:51.162Z,38.17
2023-04-16T12:24:22.654Z,33.75
2023-04-16T12:26:55.959Z,39.17
2023-04-16T12:29:24.732Z,39.65
2023-04-16T12:31:54.309Z,37.20
2023-04-16T12:34:27.760Z,32.55
2023-04-16T12:37:10.673Z,36.35
2023-04-16T12:39:38.318Z,38.08
2023-04-16T12:42:09.825Z,32.40
2023-04-16T12:44:37.433Z,31.83
2023-04-16T12:47:06.752Z,35.28
2023-04-16T12:49:34.293Z,33.03
2023-04-16T12:52:01.841Z,33.55
2023-04-16T12:54:31.220Z,34.45
2023-04-16T12:56:58.777Z,35.47
2023-04-16T12:59:26.314Z,34.85
2023-04-16T13:01:53.939Z,32.83
2023-04-16T13:04:25.642Z,32.25
2023-04-16T13:06:53.555Z,30.67
2023-04-16T13:09:21.265Z,33.55
2023-04-16T13:11:48.713Z,31.13
2023-04-16T13:14:16.212Z,33.67
2023-04-16T13:16:43.699Z,31.20
2023-04-16T13:19:11.521Z,26.92
2023-04-16T13:21:40.544Z,24.58
2023-04-16T13:24:08.256Z,22.13
2023-04-16T13:26:35.845Z,22.15
2023-04-16T13:29:03.421Z,21.05
2023-04-16T13:31:30.960Z,19.85
2023-04-16T13:33:58.487Z,20.35
2023-04-16T13:36:27.627Z,19.42
2023-04-16T13:38:56.636Z,22.23
2023-04-16T13:41:24.138Z,19.65
2023-04-16T13:43:51.649Z,23.02
2023-04-16T13:46:19.836Z,24.67
2023-04-16T13:48:47.384Z,23.00
2023-04-16T13:51:15.599Z,23.77
2023-04-16T13:53:43.149Z,25.52
2023-04-16T13:56:12.350Z,27.92
2023-04-16T13:58:40.032Z,26.95
2023-04-16T14:01:07.555Z,24.17
2023-04-16T14:03:37.716Z,26.05
2023-04-16T14:06:05.790Z,23.52
2023-04-16T14:08:33.456Z,21.92
2023-04-16T14:11:02.151Z,21.73
2023-04-16T14:13:31.076Z,22.92
2023-04-16T14:15:58.720Z,20.45
2023-04-16T14:18:26.518Z,26.33
2023-04-16T14:20:53.996Z,23.75
2023-04-16T14:23:21.642Z,26.27
2023-04-16T14:25:49.689Z,22.75
2023-04-16T14:28:17.220Z,22.13
2023-04-16T14:30:46.163Z,24.45
2023-04-16T14:33:13.633Z,23.10
2023-04-16T14:35:41.298Z,22.27
2023-04-16T14:38:08.894Z,21.45
2023-04-16T14:40:36.514Z,24.02
2023-04-16T14:43:04.194Z,19.50
2023-04-16T14:45:32.510Z,22.25
2023-04-16T14:48:01.406Z,18.33
2023-04-16T14:50:29.030Z,17.30
2023-04-16T14:52:56.639Z,16.92
2023-04-16T14:55:24.229Z,18.00
2023-04-16T14:57:51.775Z,17.45
2023-04-16T15:00:19.627Z,15.43
2023-04-16T15:02:48.116Z,16.38
2023-04-16T15:05:17.422Z,18.95
2023-04-16T15:07:44.891Z,16.52
2023-04-16T15:10:13.215Z,15.25
2023-04-16T15:12:40.757Z,15.13
2023-04-16T15:15:09.391Z,17.40
2023-04-16T15:17:36.943Z,15.80
2023-04-16T15:20:08.126Z,16.40
2023-04-16T15:22:37.052Z,17.50
2023-04-16T15:25:04.967Z,11.15
2023-04-16T15:27:32.545Z,14.55
2023-04-16T15:30:00.080Z,12.85
2023-04-16T15:32:27.820Z,12.55
2023-04-16T15:34:55.348Z,12.13
2023-04-16T15:37:22.855Z,10.07
2023-04-16T15:39:51.740Z,7.72
2023-04-16T15:42:19.264Z,8.18
2023-04-16T15:44:46.821Z,14.25
2023-04-16T15:47:14.383Z,9.73
2023-04-16T15:49:41.999Z,12.13
2023-04-16T15:52:10.376Z,11.32
2023-04-16T15:54:38.408Z,12.20
2023-04-16T15:57:07.407Z,14.70
2023-04-16T15:59:35.031Z,11.77
2023-04-16T16:02:02.764Z,11.00
2023-04-16T16:04:30.539Z,14.52
2023-04-16T16:06:58.436Z,14.50
2023-04-16T16:09:26.816Z,10.35
2023-04-16T16:11:54.703Z,11.38
2023-04-16T16:14:23.795Z,20.83
2023-04-16T16:16:51.678Z,14.60
2023-04-16T16:19:19.190Z,13.50
2023-04-16T16:21:46.680Z,18.02
2023-04-16T16:24:14.240Z,27.48
2023-04-16T16:26:41.793Z,23.55
2023-04-16T16:29:09.579Z,15.00
2023-04-16T16:31:38.826Z,16.02
2023-04-16T16:34:06.507Z,11.85
2023-04-16T16:36:36.647Z,12.05
2023-04-16T16:39:04.746Z,12.93
2023-04-16T16:41:32.438Z,14.27
2023-04-16T16:44:00.013Z,16.10
2023-04-16T16:46:27.586Z,15.77
2023-04-16T16:48:56.467Z,14.50
2023-04-16T16:51:24.020Z,12.50
2023-04-16T16:53:51.548Z,14.85
2023-04-16T16:56:19.049Z,16.10
2023-04-16T16:58:46.799Z,17.58
2023-04-16T17:01:14.380Z,13.68
2023-04-16T17:03:42.094Z,16.60
2023-04-16T17:06:11.290Z,15.25
2023-04-16T17:08:38.891Z,15.65
2023-04-16T17:11:06.348Z,18.05
2023-04-16T17:13:34.562Z,22.77
2023-04-16T17:16:02.086Z,20.83
2023-04-16T17:18:29.656Z,15.85
2023-04-16T17:20:57.532Z,16.52
2023-04-16T17:23:26.502Z,19.38
2023-04-16T17:25:54.190Z,16.45
2023-04-16T17:28:21.992Z,20.50
2023-04-16T17:30:51.921Z,12.88
2023-04-16T17:33:19.552Z,14.73
2023-04-16T17:35:47.515Z,15.80
2023-04-16T17:38:15.060Z,15.80
2023-04-16T17:40:44.020Z,15.23
2023-04-16T17:43:11.619Z,15.55
2023-04-16T17:45:39.311Z,19.20
2023-04-16T17:48:07.305Z,20.67
2023-04-16T17:50:36.452Z,19.48
2023-04-16T17:53:05.177Z,18.83
2023-04-16T17:55:32.743Z,18.08
2023-04-16T17:58:03.599Z,17.65
2023-04-16T18:00:31.364Z,20.48
2023-04-16T18:02:59.784Z,20.10
2023-04-16T18:05:27.817Z,23.20
2023-04-16T18:07:56.810Z,22.33
2023-04-16T18:10:24.595Z,18.77
2023-04-16T18:12:52.279Z,28.10
2023-04-16T18:15:21.285Z,38.05
2023-04-16T18:17:51.727Z,32.15
2023-04-16T18:20:19.932Z,24.25
2023-04-16T18:22:47.516Z,20.85
2023-04-16T18:25:16.079Z,21.75
2023-04-16T18:27:43.762Z,28.83
2023-04-16T18:30:19.839Z,19.17
2023-04-16T18:33:16.563Z,22.90
2023-04-16T18:35:40.472Z,21.52
2023-04-16T18:38:08.074Z,37.85
2023-04-16T18:40:36.096Z,34.72
2023-04-16T18:43:03.877Z,48.00
2023-04-16T18:45:34.113Z,21.58
2023-04-16T18:48:04.240Z,17.67
2023-04-16T18:50:32.013Z,21.10
2023-04-16T18:52:59.876Z,21.40
2023-04-16T18:55:27.416Z,24.35
2023-04-16T18:57:55.284Z,17.17
2023-04-16T19:00:22.920Z,21.13
2023-04-16T19:02:50.569Z,18.27
2023-04-16T19:05:21.086Z,17.70
2023-04-16T19:07:48.912Z,18.88
2023-04-16T19:10:16.762Z,24.20
2023-04-16T19:12:44.433Z,20.35
2023-04-16T19:15:12.544Z,19.50
2023-04-16T19:17:40.484Z,23.30
2023-04-16T19:20:11.369Z,20.33
2023-04-16T19:22:40.936Z,26.05
2023-04-16T19:25:09.149Z,23.02
2023-04-16T19:27:36.746Z,22.02
2023-04-16T19:30:05.214Z,22.42
2023-04-16T19:32:32.732Z,35.72
2023-04-16T19:35:00.718Z,25.33
2023-04-16T19:37:28.154Z,30.88
2023-04-16T19:39:57.142Z,25.33
2023-04-16T19:42:24.595Z,25.33
2023-04-16T19:44:52.634Z,24.27
2023-04-16T19:47:20.434Z,32.25
2023-04-16T19:49:47.958Z,25.38
2023-04-16T19:52:16.387Z,26.15
2023-04-16T19:54:43.916Z,24.27
2023-04-16T19:57:12.667Z,26.05
2023-04-16T19:59:40.315Z,28.83
2023-04-16T20:02:16.726Z,36.17
2023-04-16T20:04:44.850Z,63.00
2023-04-16T20:07:12.316Z,41.50
2023-04-16T20:09:40.054Z,34.05
2023-04-16T20:12:07.859Z,27.75
2023-04-16T20:14:36.859Z,23.65
2023-04-16T20:17:09.754Z,24.30
2023-04-16T20:19:37.982Z,25.13
2023-04-16T20:22:06.554Z,25.80
2023-04-16T20:24:34.393Z,25.17
2023-04-16T20:27:02.475Z,22.65
2023-04-16T20:29:30.028Z,25.15
2023-04-16T20:31:58.974Z,23.20
2023-04-16T20:34:26.646Z,21.75
2023-04-16T20:36:54.867Z,21.38
2023-04-16T20:39:22.347Z,21.40
2023-04-16T20:41:56.551Z,20.30
2023-04-16T20:44:26.418Z,21.52
2023-04-16T20:46:55.588Z,21.80
2023-04-16T20:49:24.969Z,16.15
2023-04-16T20:51:52.457Z,20.70
2023-04-16T20:54:20.048Z,22.00
2023-04-16T20:56:57.030Z,21.30
2023-04-16T20:59:24.677Z,17.13
2023-04-16T21:01:52.938Z,19.17
2023-04-16T21:04:20.657Z,19.50
2023-04-16T21:06:53.495Z,18.75
2023-04-16T21:09:21.251Z,24.30
2023-04-16T21:11:49.187Z,20.85
2023-04-16T21:14:16.679Z,23.52
2023-04-16T21:16:44.187Z,18.20
2023-04-16T21:19:11.989Z,20.38
2023-04-16T21:21:39.669Z,20.38
2023-04-16T21:24:08.858Z,20.75
2023-04-16T21:26:36.461Z,21.33
2023-04-16T21:29:04.148Z,18.42
2023-04-16T21:31:31.800Z,16.65
2023-04-16T21:33:59.581Z,22.23
2023-04-16T21:36:27.778Z,20.17
2023-04-16T21:38:55.361Z,17.83
2023-04-16T21:41:24.410Z,20.42
2023-04-16T21:43:51.887Z,19.48
2023-04-16T21:46:19.374Z,22.92
2023-04-16T21:48:48.467Z,19.67
2023-04-16T21:51:15.969Z,21.67
2023-04-16T21:53:43.408Z,25.92
2023-04-16T21:56:10.976Z,33.83
2023-04-16T21:58:39.828Z,25.38
2023-04-16T22:01:09.548Z,24.67
2023-04-16T22:03:40.684Z,17.90
2023-04-16T22:06:08.669Z,28.05
2023-04-16T22:08:36.132Z,23.98
2023-04-16T22:11:04.383Z,27.50
2023-04-16T22:13:33.169Z,27.17
2023-04-16T22:16:02.431Z,23.85
2023-04-16T22:18:33.013Z,23.98
2023-04-16T22:21:00.699Z,26.00
2023-04-16T22:23:28.373Z,24.90
2023-04-16T22:25:57.022Z,28.00
2023-04-16T22:28:24.631Z,25.42
2023-04-16T22:30:52.165Z,28.95
2023-04-16T22:33:21.263Z,29.83
2023-04-16T22:35:48.765Z,32.30
2023-04-16T22:38:16.529Z,34.10
2023-04-16T22:40:48.179Z,29.60
2023-04-16T22:43:16.134Z,33.05
2023-04-16T22:45:46.420Z,27.65
2023-04-16T22:48:14.232Z,29.15
2023-04-16T22:50:46.293Z,29.73
2023-04-16T22:53:14.082Z,30.65
2023-04-16T22:55:41.685Z,34.95
2023-04-16T22:58:09.519Z,27.00
2023-04-16T23:00:37.064Z,28.10
2023-04-16T23:03:04.898Z,29.02
2023-04-16T23:05:32.538Z,31.98
2023-04-16T23:08:01.794Z,32.95
2023-04-16T23:10:29.533Z,29.83
2023-04-16T23:12:57.048Z,28.83
2023-04-16T23:15:24.908Z,33.47
2023-04-16T23:17:52.594Z,32.05
2023-04-16T23:20:20.354Z,27.77
2023-04-16T23:22:48.010Z,29.77
2023-04-16T23:25:18.058Z,27.63
2023-04-16T23:27:45.734Z,34.60
2023-04-16T23:30:14.194Z,36.53
2023-04-16T23:32:41.931Z,28.38
2023-04-16T23:35:10.443Z,32.25
2023-04-16T23:37:37.941Z,31.55
2023-04-16T23:40:06.582Z,29.27
2023-04-16T23:42:35.716Z,34.25
2023-04-16T23:45:03.333Z,24.75
2023-04-16T23:47:31.034Z,25.23
2023-04-16T23:49:58.826Z,28.65
2023-04-16T23:52:26.439Z,29.48
2023-04-16T23:54:53.982Z,34.95
2023-04-16T23:57:21.753Z,26.85
2023-04-16T23:59:50.629Z,27.42
